HDM weather

Dirección de Seguridad Pública Municipal Heliport
Mexicali, Baja California, Mexico

Public forecast

Using degrees Celsius for public forecast. Weather courtesy of forecast.io.

Closest aviation weather report (METAR) to Dirección de Seguridad Pública Municipal Heliport

Closest report is General Rodolfo Sánchez Taboada International Airport, 12.0 nm (22.2 km) E. Retrieved 2020/04/02 07:40 UTC (1 hour ago):

MMML 020740Z 04002KT 10SM SKC 16/08 A2976

Closest aviation forecast (TAF) to Dirección de Seguridad Pública Municipal Heliport

Closest forecast is General Rodolfo Sánchez Taboada International Airport, 12.0 nm (22.2 km) E. Retrieved 2020/04/02 06:43 UTC (2 hours ago):

TAF MMML 020439Z 0206/0306 17005KT P6SM SKC FM021800 23010KT P6SM SCT120 BKN250 FM030500 22005KT P6SM SKC